| time (UTC) | temp F | wind direction | speed knots | gust knots | rain 1hr in | rain 24hr in | rain mn in | humidity % | barometer mb |
| 20260508105453 | 37 | 149 | 0.0 | 0.9 | 0.00 | 0.00 | 0.00 | 94 | 1012.5 |
| 20260508104950 | 37 | 206 | 0.9 | 1.7 | 0.00 | 0.00 | 0.00 | 94 | 1012.4 |
| 20260508104448 | 37 | 247 | 1.7 | 1.7 | 0.00 | 0.00 | 0.00 | 94 | 1012.7 |
| 20260508103944 | 37 | 212 | 0.9 | 1.7 | 0.00 | 0.00 | 0.00 | 94 | 1012.6 |
| 20260508103441 | 37 | 220 | 0.9 | 1.7 | 0.00 | 0.00 | 0.00 | 94 | 1012.3 |
| 20260508102938 | 37 | 188 | 0.9 | 0.9 | 0.00 | 0.00 | 0.00 | 94 | 1012.3 |
| 20260508102437 | 37 | 187 | 0.9 | 0.9 | 0.00 | 0.00 | 0.00 | 94 | 1012.4 |
| 20260508101933 | 38 | 216 | 0.9 | 1.7 | 0.00 | 0.00 | 0.00 | 94 | 1012.4 |
| 20260508101431 | 38 | 223 | 0.9 | 1.7 | 0.00 | 0.00 | 0.00 | 93 | 1012.2 |
| 20260508100928 | 38 | 213 | 0.9 | 1.7 | 0.00 | 0.00 | 0.00 | 93 | 1012.2 |
| 20260508100427 | 38 | 244 | 0.9 | 1.7 | 0.00 | 0.00 | 0.00 | 93 | 1012.4 |
| 20260508095922 | 38 | 227 | 1.7 | 1.7 | 0.00 | 0.00 | 0.00 | 93 | 1012.4 |
| 20260508095420 | 38 | 200 | 0.9 | 0.9 | 0.00 | 0.00 | 0.00 | 93 | 1012.4 |
| 20260508094916 | 39 | 194 | 0.9 | 1.7 | 0.00 | 0.00 | 0.00 | 93 | 1012.2 |
| 20260508094413 | 39 | 219 | 0.9 | 1.7 | 0.00 | 0.00 | 0.00 | 92 | 1012.6 |
| 20260508093910 | 39 | 256 | 0.9 | 1.7 | 0.00 | 0.00 | 0.00 | 92 | 1012.5 |
| 20260508093408 | 39 | 228 | 1.7 | 1.7 | 0.00 | 0.00 | 0.00 | 91 | 1012.8 |
| 20260508092905 | 40 | 164 | 0.0 | 0.9 | 0.00 | 0.00 | 0.00 | 90 | 1012.6 |
| 20260508092403 | 40 | 111 | 0.9 | 1.7 | 0.00 | 0.00 | 0.00 | 90 | 1012.7 |
| 20260508091901 | 41 | 183 | 0.0 | 0.9 | 0.00 | 0.00 | 0.00 | 89 | 1012.9 |
| 20260508091357 | 41 | 172 | 0.0 | 0.9 | 0.00 | 0.00 | 0.00 | 88 | 1012.7 |
| 20260508090855 | 42 | 222 | 0.9 | 1.7 | 0.00 | 0.00 | 0.00 | 87 | 1012.9 |
| 20260508090354 | 42 | 211 | 0.9 | 2.6 | 0.00 | 0.00 | 0.00 | 86 | 1012.6 |
| 20260508085849 | 43 | 250 | 2.6 | 4.3 | 0.00 | 0.00 | 0.00 | 84 | 1012.5 |
| 20260508085346 | 43 | 255 | 2.6 | 2.6 | 0.00 | 0.00 | 0.00 | 85 | 1012.6 |
| 20260508084842 | 43 | 176 | 0.9 | 1.7 | 0.00 | 0.00 | 0.00 | 84 | 1012.5 |
| 20260508084339 | 43 | 277 | 2.6 | 2.6 | 0.00 | 0.00 | 0.00 | 86 | 1012.5 |
| 20260508083837 | 43 | 208 | 1.7 | 1.7 | 0.00 | 0.00 | 0.00 | 87 | 1012.7 |
| 20260508083335 | 42 | 93 | 0.0 | 0.9 | 0.00 | 0.00 | 0.00 | 89 | 1012.7 |
| 20260508082834 | 42 | 114 | 0.0 | 0.0 | 0.00 | 0.00 | 0.00 | 90 | 1012.6 |
| 20260508082332 | 42 | 143 | 0.0 | 0.0 | 0.00 | 0.00 | 0.00 | 90 | 1012.7 |
| 20260508081829 | 42 | 149 | 0.0 | 0.0 | 0.00 | 0.00 | 0.00 | 90 | 1012.8 |
| 20260508081326 | 42 | 153 | 0.0 | 0.9 | 0.00 | 0.00 | 0.00 | 90 | 1012.6 |
| 20260508080823 | 42 | 177 | 0.0 | 0.9 | 0.00 | 0.00 | 0.00 | 90 | 1012.8 |
| 20260508080321 | 42 | 220 | 0.0 | 0.0 | 0.00 | 0.00 | 0.00 | 89 | 1012.8 |
| 20260508075817 | 42 | 146 | 0.0 | 0.0 | 0.00 | 0.00 | 0.00 | 89 | 1012.6 |
| 20260508075314 | 42 | 95 | 0.0 | 0.9 | 0.00 | 0.00 | 0.00 | 89 | 1012.7 |
| 20260508074812 | 42 | 139 | 0.0 | 0.0 | 0.00 | 0.00 | 0.00 | 89 | 1013.0 |
| 20260508074309 | 42 | 107 | 0.0 | 0.0 | 0.00 | 0.00 | 0.00 | 89 | 1012.9 |
| 20260508073806 | 42 | 9 | 0.0 | 0.9 | 0.00 | 0.00 | 0.00 | 90 | 1013.2 |
| 20260508073304 | 41 | 114 | 0.0 | 0.0 | 0.00 | 0.00 | 0.00 | 90 | 1013.1 |
| 20260508072759 | 41 | 122 | 0.0 | 0.0 | 0.00 | 0.00 | 0.00 | 89 | 1013.2 |
| 20260508072257 | 41 | 166 | 0.0 | 0.9 | 0.00 | 0.00 | 0.00 | 90 | 1013.2 |
| 20260508071754 | 41 | 163 | 0.0 | 0.9 | 0.00 | 0.00 | 0.00 | 89 | 1013.3 |
| 20260508071252 | 41 | 159 | 0.0 | 0.9 | 0.00 | 0.00 | 0.00 | 89 | 1013.1 |
| 20260508070749 | 41 | 70 | 0.9 | 1.7 | 0.00 | 0.00 | 0.00 | 90 | 1013.4 |
| 20260508070248 | 40 | 152 | 1.7 | 1.7 | 0.00 | 0.00 | 0.00 | 90 | 1013.4 |
| 20260508065744 | 40 | 199 | 0.9 | 0.9 | 0.00 | 0.00 | 0.00 | 90 | 1013.2 |
| 20260508065242 | 40 | 206 | 0.9 | 1.7 | 0.00 | 0.00 | 0.00 | 90 | 1013.3 |
| 20260508064740 | 40 | 233 | 0.9 | 1.7 | 0.00 | 0.00 | 0.00 | 90 | 1013.2 |
| 20260508064238 | 40 | 203 | 0.9 | 1.7 | 0.00 | 0.00 | 0.00 | 90 | 1013.0 |
| 20260508063735 | 39 | 203 | 0.9 | 0.9 | 0.00 | 0.00 | 0.00 | 90 | 1012.8 |
| 20260508063233 | 39 | 226 | 0.9 | 1.7 | 0.00 | 0.00 | 0.00 | 91 | 1012.9 |
| 20260508062730 | 39 | 242 | 1.7 | 1.7 | 0.00 | 0.00 | 0.00 | 91 | 1012.6 |
| 20260508062227 | 39 | 182 | 0.9 | 0.9 | 0.00 | 0.00 | 0.00 | 90 | 1012.9 |
| 20260508061724 | 39 | 207 | 0.0 | 0.0 | 0.00 | 0.00 | 0.00 | 90 | 1012.7 |
| 20260508061221 | 39 | 137 | 0.0 | 0.0 | 0.00 | 0.00 | 0.00 | 90 | 1012.6 |
| 20260508060718 | 39 | 129 | 0.0 | 0.9 | 0.00 | 0.00 | 0.00 | 91 | 1012.8 |
| 20260508060216 | 39 | 265 | 0.9 | 1.7 | 0.00 | 0.00 | 0.00 | 91 | 1012.8 |
| 20260508055711 | 39 | 260 | 1.7 | 1.7 | 0.00 | 0.00 | 0.00 | 91 | 1012.9 |
| 20260508055208 | 38 | 161 | 0.9 | 1.7 | 0.00 | 0.00 | 0.00 | 92 | 1012.8 |
| 20260508054704 | 38 | 244 | 1.7 | 1.7 | 0.00 | 0.00 | 0.00 | 92 | 1012.9 |
| 20260508054202 | 38 | 172 | 0.9 | 0.9 | 0.00 | 0.00 | 0.00 | 92 | 1013.1 |
| 20260508053659 | 38 | 216 | 1.7 | 1.7 | 0.00 | 0.00 | 0.00 | 92 | 1013.0 |
| 20260508053157 | 37 | 263 | 1.7 | 1.7 | 0.00 | 0.00 | 0.00 | 92 | 1013.2 |
| 20260508052654 | 37 | 191 | 0.9 | 1.7 | 0.00 | 0.00 | 0.00 | 92 | 1013.1 |
| 20260508052151 | 38 | 185 | 0.9 | 0.9 | 0.00 | 0.00 | 0.00 | 92 | 1013.0 |
| 20260508051647 | 38 | 136 | 0.0 | 0.9 | 0.00 | 0.00 | 0.00 | 92 | 1013.0 |
| 20260508051142 | 37 | 246 | 0.9 | 1.7 | 0.00 | 0.00 | 0.00 | 92 | 1013.2 |
| 20260508050638 | 37 | 212 | 0.9 | 0.9 | 0.00 | 0.00 | 0.00 | 91 | 1013.4 |
| 20260508050137 | 38 | 192 | 0.9 | 0.9 | 0.00 | 0.00 | 0.00 | 91 | 1013.3 |
| 20260508045632 | 38 | 171 | 0.0 | 0.9 | 0.00 | 0.00 | 0.00 | 91 | 1013.3 |
| 20260508045130 | 38 | 149 | 0.9 | 1.7 | 0.00 | 0.00 | 0.00 | 91 | 1013.3 |
| 20260508044627 | 38 | 210 | 0.9 | 1.7 | 0.00 | 0.00 | 0.00 | 91 | 1013.2 |
| 20260508044123 | 38 | 222 | 0.9 | 1.7 | 0.00 | 0.00 | 0.00 | 90 | 1013.2 |
| 20260508043620 | 38 | 231 | 0.9 | 1.7 | 0.00 | 0.00 | 0.00 | 90 | 1013.3 |
| 20260508043118 | 39 | 196 | 0.9 | 0.9 | 0.00 | 0.00 | 0.00 | 90 | 1013.2 |
| 20260508042614 | 39 | 216 | 0.9 | 0.9 | 0.00 | 0.00 | 0.00 | 90 | 1013.4 |
| 20260508042111 | 39 | 203 | 0.9 | 1.7 | 0.00 | 0.00 | 0.00 | 90 | 1013.2 |
| 20260508041607 | 39 | 215 | 0.9 | 1.7 | 0.00 | 0.00 | 0.00 | 89 | 1013.3 |
| 20260508041104 | 39 | 216 | 1.7 | 1.7 | 0.00 | 0.00 | 0.00 | 89 | 1013.2 |
| 20260508040601 | 39 | 234 | 0.9 | 0.9 | 0.00 | 0.00 | 0.00 | 90 | 1012.9 |
| 20260508040059 | 39 | 221 | 1.7 | 1.7 | 0.00 | 0.00 | 0.00 | 89 | 1013.0 |
| 20260508035555 | 39 | 253 | 1.7 | 2.6 | 0.00 | 0.00 | 0.00 | 89 | 1012.9 |
| 20260508035053 | 39 | 264 | 1.7 | 1.7 | 0.00 | 0.00 | 0.00 | 89 | 1012.8 |
| 20260508034549 | 39 | 173 | 0.9 | 1.7 | 0.00 | 0.00 | 0.00 | 89 | 1012.8 |
| 20260508034046 | 39 | 254 | 1.7 | 1.7 | 0.00 | 0.00 | 0.00 | 89 | 1012.9 |
| 20260508033544 | 39 | 243 | 1.7 | 1.7 | 0.00 | 0.00 | 0.00 | 89 | 1013.0 |
| 20260508033042 | 39 | 237 | 1.7 | 1.7 | 0.00 | 0.00 | 0.00 | 88 | 1013.1 |
| 20260508032538 | 39 | 214 | 1.7 | 1.7 | 0.00 | 0.00 | 0.00 | 88 | 1012.9 |
| 20260508032036 | 40 | 198 | 1.7 | 1.7 | 0.00 | 0.00 | 0.00 | 88 | 1012.9 |
| 20260508031533 | 39 | 234 | 0.9 | 1.7 | 0.00 | 0.00 | 0.00 | 88 | 1012.6 |
| 20260508031029 | 40 | 232 | 1.7 | 1.7 | 0.00 | 0.00 | 0.00 | 88 | 1012.9 |
| 20260508030526 | 40 | 258 | 1.7 | 1.7 | 0.00 | 0.00 | 0.00 | 88 | 1012.7 |
| 20260508030024 | 40 | 248 | 1.7 | 2.6 | 0.00 | 0.00 | 0.00 | 88 | 1012.9 |
| 20260508025519 | 40 | 257 | 1.7 | 1.7 | 0.00 | 0.00 | 0.00 | 87 | 1012.8 |
| 20260508025016 | 40 | 236 | 2.6 | 2.6 | 0.00 | 0.00 | 0.00 | 87 | 1013.0 |
| 20260508024512 | 40 | 239 | 2.6 | 2.6 | 0.00 | 0.00 | 0.00 | 87 | 1013.0 |
| 20260508024009 | 41 | 252 | 1.7 | 1.7 | 0.00 | 0.00 | 0.00 | 86 | 1012.9 |
| 20260508023506 | 41 | 230 | 1.7 | 1.7 | 0.00 | 0.00 | 0.00 | 86 | 1012.7 |
| 20260508023004 | 41 | 211 | 0.9 | 1.7 | 0.00 | 0.00 | 0.00 | 86 | 1012.9 |
| 20260508022459 | 41 | 216 | 0.9 | 1.7 | 0.00 | 0.00 | 0.00 | 85 | 1012.7 |
| 20260508021956 | 42 | 223 | 0.9 | 1.7 | 0.00 | 0.00 | 0.00 | 85 | 1012.8 |
| 20260508021452 | 42 | 240 | 1.7 | 1.7 | 0.00 | 0.00 | 0.00 | 84 | 1012.8 |
| 20260508020948 | 42 | 258 | 1.7 | 2.6 | 0.00 | 0.00 | 0.00 | 84 | 1012.8 |
| 20260508020446 | 42 | 203 | 0.9 | 1.7 | 0.00 | 0.00 | 0.00 | 83 | 1012.8 |
| 20260508015943 | 42 | 221 | 0.9 | 1.7 | 0.00 | 0.00 | 0.00 | 83 | 1012.8 |
| 20260508015441 | 42 | 210 | 1.7 | 1.7 | 0.00 | 0.00 | 0.00 | 83 | 1012.8 |
| 20260508014937 | 43 | 262 | 1.7 | 1.7 | 0.00 | 0.00 | 0.00 | 82 | 1012.7 |
| 20260508014434 | 43 | 176 | 0.9 | 1.7 | 0.00 | 0.00 | 0.00 | 82 | 1012.8 |
| 20260508013930 | 44 | 205 | 1.7 | 1.7 | 0.00 | 0.00 | 0.00 | 80 | 1012.6 |
| 20260508013426 | 44 | 209 | 0.9 | 1.7 | 0.00 | 0.00 | 0.00 | 80 | 1012.5 |
| 20260508012924 | 44 | 268 | 1.7 | 1.7 | 0.00 | 0.00 | 0.00 | 79 | 1012.4 |
| 20260508012420 | 45 | 137 | 0.9 | 1.7 | 0.00 | 0.00 | 0.00 | 79 | 1012.2 |
| 20260508011918 | 45 | 188 | 1.7 | 1.7 | 0.00 | 0.00 | 0.00 | 79 | 1012.5 |
| 20260508011416 | 46 | 243 | 1.7 | 1.7 | 0.00 | 0.00 | 0.00 | 78 | 1012.4 |
| 20260508010913 | 46 | 263 | 2.6 | 2.6 | 0.00 | 0.00 | 0.00 | 77 | 1012.3 |
| 20260508010410 | 46 | 212 | 1.7 | 1.7 | 0.00 | 0.00 | 0.00 | 77 | 1012.2 |
| 20260508005907 | 46 | 255 | 1.7 | 1.7 | 0.00 | 0.00 | 0.00 | 76 | 1012.2 |
| 20260508005404 | 47 | 249 | 0.9 | 1.7 | 0.00 | 0.00 | 0.00 | 76 | 1012.1 |
| 20260508004900 | 47 | 246 | 0.9 | 1.7 | 0.00 | 0.00 | 0.00 | 74 | 1012.0 |
| 20260508004356 | 48 | 267 | 1.7 | 1.7 | 0.00 | 0.00 | 0.00 | 73 | 1012.0 |
| 20260508003853 | 48 | 201 | 0.9 | 1.7 | 0.00 | 0.00 | 0.00 | 71 | 1011.9 |
| 20260508003350 | 48 | 220 | 0.9 | 0.9 | 0.00 | 0.00 | 0.00 | 70 | 1011.9 |
| 20260508002848 | 49 | 190 | 0.9 | 0.9 | 0.00 | 0.00 | 0.00 | 71 | 1011.8 |
| 20260508002344 | 50 | 193 | 0.9 | 0.9 | 0.00 | 0.00 | 0.00 | 70 | 1011.8 |
| 20260508001840 | 50 | 205 | 0.0 | 0.0 | 0.00 | 0.00 | 0.00 | 68 | 1012.1 |
| 20260508001336 | 51 | 152 | 0.0 | 0.0 | 0.00 | 0.00 | 0.00 | 64 | 1011.7 |
| 20260508000832 | 52 | 173 | 0.0 | 0.0 | 0.00 | 0.00 | 0.00 | 60 | 1011.7 |
| 20260508000329 | 53 | 121 | 0.0 | 0.9 | 0.00 | 0.00 | 0.00 | 59 | 1011.8 |
| 20260507235826 | 53 | 262 | 2.6 | 4.3 | 0.00 | 0.00 | 0.00 | 50 | 1011.7 |
| 20260507235323 | 54 | 293 | 1.7 | 1.7 | 0.00 | 0.00 | 0.00 | 53 | 1011.4 |
| 20260507234820 | 55 | 225 | 1.7 | 2.6 | 0.00 | 0.00 | 0.00 | 56 | 1011.7 |
| 20260507234317 | 55 | 200 | 0.9 | 1.7 | 0.00 | 0.00 | 0.00 | 53 | 1011.4 |
| 20260507233813 | 56 | 112 | 0.0 | 2.6 | 0.00 | 0.00 | 0.00 | 55 | 1011.4 |
| 20260507233311 | 57 | 143 | 0.0 | 0.0 | 0.00 | 0.00 | 0.00 | 52 | 1011.3 |
| 20260507232809 | 57 | 109 | 0.0 | 0.0 | 0.00 | 0.00 | 0.00 | 52 | 1011.4 |
| 20260507232306 | 58 | 149 | 0.0 | 0.0 | 0.00 | 0.00 | 0.00 | 49 | 1011.2 |
| 20260507231802 | 58 | 89 | 1.7 | 4.3 | 0.00 | 0.00 | 0.00 | 45 | 1011.2 |
| 20260507231259 | 58 | 196 | 0.9 | 5.2 | 0.00 | 0.00 | 0.00 | 48 | 1011.3 |
| 20260507230755 | 57 | 218 | 1.7 | 2.6 | 0.00 | 0.00 | 0.00 | 45 | 1011.1 |
| 20260507230253 | 57 | 191 | 4.3 | 5.2 | 0.00 | 0.00 | 0.00 | 46 | 1011.4 |
| 20260507225752 | 58 | 210 | 2.6 | 6.1 | 0.00 | 0.00 | 0.00 | 46 | 1011.4 |
| 20260507225249 | 59 | 233 | 3.5 | 5.2 | 0.00 | 0.00 | 0.00 | 48 | 1011.6 |
| 20260507224744 | 58 | 255 | 1.7 | 4.3 | 0.00 | 0.00 | 0.00 | 48 | 1011.3 |
| 20260507224241 | 58 | 228 | 5.2 | 7.8 | 0.00 | 0.00 | 0.00 | 47 | 1011.4 |
| 20260507223738 | 59 | 30 | 0.9 | 6.1 | 0.00 | 0.00 | 0.00 | 44 | 1011.7 |
| 20260507223234 | 58 | 165 | 3.5 | 7.0 | 0.00 | 0.00 | 0.00 | 44 | 1011.8 |
| 20260507222731 | 59 | 237 | 7.0 | 8.7 | 0.00 | 0.00 | 0.00 | 44 | 1011.4 |
| 20260507222227 | 59 | 286 | 3.5 | 7.8 | 0.00 | 0.00 | 0.00 | 45 | 1011.6 |
| 20260507221724 | 59 | 315 | 0.9 | 6.1 | 0.00 | 0.00 | 0.00 | 45 | 1011.6 |
| 20260507221220 | 59 | 218 | 4.3 | 7.0 | 0.00 | 0.00 | 0.00 | 45 | 1011.2 |
| 20260507220717 | 58 | 269 | 2.6 | 7.0 | 0.00 | 0.00 | 0.00 | 47 | 1011.4 |
| 20260507220216 | 58 | 144 | 3.5 | 7.8 | 0.00 | 0.00 | 0.00 | 47 | 1011.3 |
| 20260507215712 | 60 | 252 | 2.6 | 7.0 | 0.00 | 0.00 | 0.00 | 45 | 1011.4 |
| 20260507215209 | 60 | 215 | 3.5 | 7.0 | 0.00 | 0.00 | 0.00 | 46 | 1011.3 |
| 20260507214706 | 58 | 221 | 4.3 | 6.1 | 0.00 | 0.00 | 0.00 | 47 | 1011.1 |
| 20260507214203 | 60 | 285 | 1.7 | 7.0 | 0.00 | 0.00 | 0.00 | 47 | 1011.1 |
| 20260507213658 | 60 | 223 | 2.6 | 4.3 | 0.00 | 0.00 | 0.00 | 51 | 1011.1 |
| 20260507213156 | 60 | 318 | 7.0 | 9.6 | 0.00 | 0.00 | 0.00 | 45 | 1011.0 |
| 20260507212652 | 60 | 201 | 5.2 | 8.7 | 0.00 | 0.00 | 0.00 | 50 | 1011.1 |
| 20260507212149 | 61 | 34 | 2.6 | 8.7 | 0.00 | 0.00 | 0.00 | 48 | 1010.7 |
| 20260507211646 | 60 | 239 | 1.7 | 6.1 | 0.00 | 0.00 | 0.00 | 49 | 1010.7 |
| 20260507211141 | 60 | 250 | 6.1 | 9.6 | 0.00 | 0.00 | 0.00 | 48 | 1010.6 |
| 20260507210639 | 59 | 197 | 3.5 | 7.0 | 0.00 | 0.00 | 0.00 | 50 | 1010.8 |
| 20260507210135 | 58 | 236 | 3.5 | 7.8 | 0.00 | 0.00 | 0.00 | 49 | 1010.4 |
| 20260507205632 | 58 | 138 | 5.2 | 12.2 | 0.00 | 0.00 | 0.00 | 50 | 1010.6 |
| 20260507205128 | 58 | 259 | 1.7 | 7.0 | 0.00 | 0.00 | 0.00 | 50 | 1010.5 |
| 20260507204625 | 58 | 280 | 6.1 | 9.6 | 0.00 | 0.00 | 0.00 | 49 | 1010.3 |
| 20260507204122 | 59 | 232 | 7.0 | 8.7 | 0.00 | 0.00 | 0.00 | 49 | 1010.7 |
| 20260507203620 | 59 | 98 | 1.7 | 4.3 | 0.00 | 0.00 | 0.00 | 48 | 1010.4 |
| 20260507203118 | 59 | 293 | 5.2 | 7.0 | 0.00 | 0.00 | 0.00 | 50 | 1010.5 |
| 20260507202613 | 59 | 235 | 6.1 | 7.8 | 0.00 | 0.00 | 0.00 | 47 | 1010.4 |
| 20260507202110 | 60 | 10 | 0.9 | 4.3 | 0.00 | 0.00 | 0.00 | 46 | 1010.3 |
| 20260507201605 | 60 | 65 | 0.9 | 4.3 | 0.00 | 0.00 | 0.00 | 46 | 1010.5 |
| 20260507201102 | 62 | 202 | 4.3 | 7.8 | 0.00 | 0.00 | 0.00 | 46 | 1010.4 |
| 20260507200557 | 61 | 227 | 3.5 | 8.7 | 0.00 | 0.00 | 0.00 | 48 | 1010.4 |
| 20260507200054 | 60 | 302 | 2.6 | 9.6 | 0.00 | 0.00 | 0.00 | 43 | 1010.5 |
| 20260507195551 | 60 | 234 | 7.0 | 14.8 | 0.00 | 0.00 | 0.00 | 46 | 1010.6 |
| 20260507195048 | 61 | 292 | 3.5 | 11.3 | 0.00 | 0.00 | 0.00 | 45 | 1010.7 |
| 20260507194544 | 61 | 204 | 0.9 | 8.7 | 0.00 | 0.00 | 0.00 | 46 | 1010.7 |
| 20260507194040 | 60 | 227 | 4.3 | 11.3 | 0.00 | 0.00 | 0.00 | 45 | 1010.7 |
| 20260507193538 | 61 | 213 | 0.9 | 7.8 | 0.00 | 0.00 | 0.00 | 44 | 1010.7 |
| 20260507193035 | 60 | 210 | 0.9 | 7.0 | 0.00 | 0.00 | 0.00 | 42 | 1010.8 |
| 20260507192531 | 61 | 203 | 2.6 | 13.9 | 0.00 | 0.00 | 0.00 | 46 | 1010.6 |
| 20260507192028 | 60 | 15 | 1.7 | 8.7 | 0.00 | 0.00 | 0.00 | 50 | 1010.6 |
| 20260507191523 | 62 | 274 | 7.8 | 13.9 | 0.00 | 0.00 | 0.00 | 48 | 1010.8 |
| 20260507191020 | 60 | 187 | 3.5 | 7.8 | 0.00 | 0.00 | 0.00 | 48 | 1010.7 |
| 20260507190518 | 62 | 272 | 7.8 | 9.6 | 0.00 | 0.00 | 0.00 | 44 | 1010.9 |
| 20260507190016 | 61 | 263 | 3.5 | 7.8 | 0.00 | 0.00 | 0.00 | 48 | 1010.6 |
| 20260507185514 | 61 | 224 | 4.3 | 5.2 | 0.00 | 0.00 | 0.00 | 44 | 1010.8 |
| 20260507185010 | 61 | 222 | 1.7 | 7.8 | 0.00 | 0.00 | 0.00 | 48 | 1010.9 |
| 20260507184509 | 60 | 197 | 1.7 | 7.0 | 0.00 | 0.00 | 0.00 | 46 | 1010.8 |
| 20260507184006 | 59 | 274 | 1.7 | 5.2 | 0.00 | 0.00 | 0.00 | 46 | 1010.7 |
| 20260507183502 | 60 | 207 | 6.1 | 7.0 | 0.00 | 0.00 | 0.00 | 46 | 1011.0 |
| 20260507182959 | 61 | 214 | 5.2 | 7.0 | 0.00 | 0.00 | 0.00 | 45 | 1011.0 |
| 20260507182455 | 60 | 275 | 1.7 | 7.0 | 0.00 | 0.00 | 0.00 | 45 | 1010.9 |
| 20260507181951 | 60 | 234 | 4.3 | 8.7 | 0.00 | 0.00 | 0.00 | 45 | 1010.8 |
| 20260507181448 | 59 | 200 | 5.2 | 12.2 | 0.00 | 0.00 | 0.00 | 47 | 1010.9 |
| 20260507180944 | 60 | 201 | 5.2 | 8.7 | 0.00 | 0.00 | 0.00 | 46 | 1010.7 |
| 20260507180441 | 61 | 266 | 5.2 | 9.6 | 0.00 | 0.00 | 0.00 | 52 | 1011.1 |
| 20260507175937 | 60 | 42 | 1.7 | 6.1 | 0.00 | 0.00 | 0.00 | 50 | 1011.0 |
| 20260507175434 | 60 | 199 | 5.2 | 7.8 | 0.00 | 0.00 | 0.00 | 51 | 1011.1 |
| 20260507174932 | 59 | 211 | 6.1 | 8.7 | 0.00 | 0.00 | 0.00 | 47 | 1011.0 |
| 20260507174429 | 60 | 261 | 3.5 | 6.1 | 0.00 | 0.00 | 0.00 | 46 | 1011.0 |
| 20260507173926 | 58 | 212 | 2.6 | 7.0 | 0.00 | 0.00 | 0.00 | 51 | 1011.1 |
| 20260507173423 | 59 | 257 | 6.1 | 8.7 | 0.00 | 0.00 | 0.00 | 47 | 1011.1 |
| 20260507172920 | 60 | 331 | 0.9 | 6.1 | 0.00 | 0.00 | 0.00 | 44 | 1011.3 |
| 20260507172417 | 58 | 15 | 1.7 | 5.2 | 0.00 | 0.00 | 0.00 | 47 | 1011.3 |
| 20260507171913 | 58 | 226 | 3.5 | 7.0 | 0.00 | 0.00 | 0.00 | 53 | 1011.4 |
| 20260507171409 | 59 | 338 | 7.0 | 8.7 | 0.00 | 0.00 | 0.00 | 48 | 1011.4 |
| 20260507170907 | 58 | 218 | 7.0 | 11.3 | 0.00 | 0.00 | 0.00 | 44 | 1011.4 |
| 20260507170403 | 58 | 227 | 6.1 | 12.2 | 0.00 | 0.00 | 0.00 | 49 | 1011.4 |
| 20260507165859 | 58 | 299 | 2.6 | 7.0 | 0.00 | 0.00 | 0.00 | 49 | 1011.6 |
| 20260507165355 | 59 | 211 | 6.1 | 7.0 | 0.00 | 0.00 | 0.00 | 49 | 1011.6 |
| 20260507164851 | 58 | 107 | 7.0 | 8.7 | 0.00 | 0.00 | 0.00 | 47 | 1011.7 |
| 20260507164348 | 58 | 251 | 2.6 | 7.0 | 0.00 | 0.00 | 0.00 | 48 | 1011.4 |
| 20260507163846 | 58 | 213 | 4.3 | 8.7 | 0.00 | 0.00 | 0.00 | 48 | 1011.4 |
| 20260507163343 | 58 | 43 | 2.6 | 7.8 | 0.00 | 0.00 | 0.00 | 50 | 1011.4 |
| 20260507162839 | 57 | 223 | 2.6 | 7.8 | 0.00 | 0.00 | 0.00 | 47 | 1011.7 |
| 20260507162335 | 58 | 309 | 2.6 | 6.1 | 0.00 | 0.00 | 0.00 | 47 | 1011.7 |
| 20260507161832 | 58 | 179 | 4.3 | 8.7 | 0.00 | 0.00 | 0.00 | 47 | 1011.8 |
| 20260507161329 | 57 | 218 | 3.5 | 9.6 | 0.00 | 0.00 | 0.00 | 47 | 1011.7 |
| 20260507160825 | 59 | 223 | 1.7 | 6.1 | 0.00 | 0.00 | 0.00 | 47 | 1011.4 |
| 20260507160321 | 58 | 254 | 6.1 | 7.8 | 0.00 | 0.00 | 0.00 | 49 | 1011.7 |
| 20260507155818 | 58 | 279 | 2.6 | 7.8 | 0.00 | 0.00 | 0.00 | 49 | 1011.4 |
| 20260507155314 | 58 | 165 | 1.7 | 7.8 | 0.00 | 0.00 | 0.00 | 47 | 1011.7 |
| 20260507154810 | 58 | 214 | 1.7 | 7.8 | 0.00 | 0.00 | 0.00 | 49 | 1011.7 |
| 20260507154308 | 58 | 91 | 0.9 | 4.3 | 0.00 | 0.00 | 0.00 | 47 | 1011.6 |
| 20260507153804 | 58 | 213 | 2.6 | 6.1 | 0.00 | 0.00 | 0.00 | 51 | 1011.7 |
| 20260507153301 | 58 | 208 | 6.1 | 7.8 | 0.00 | 0.00 | 0.00 | 54 | 1011.7 |
| 20260507152757 | 57 | 211 | 8.7 | 11.3 | 0.00 | 0.00 | 0.00 | 49 | 1011.6 |
| 20260507152254 | 57 | 128 | 0.9 | 8.7 | 0.00 | 0.00 | 0.00 | 54 | 1011.6 |
| 20260507151749 | 57 | 230 | 1.7 | 5.2 | 0.00 | 0.00 | 0.00 | 49 | 1011.9 |
| 20260507151246 | 56 | 191 | 3.5 | 9.6 | 0.00 | 0.00 | 0.00 | 48 | 1011.7 |
| 20260507150743 | 56 | 274 | 5.2 | 8.7 | 0.00 | 0.00 | 0.00 | 55 | 1011.8 |
| 20260507150240 | 56 | 255 | 2.6 | 4.3 | 0.00 | 0.00 | 0.00 | 52 | 1011.8 |
| 20260507145736 | 56 | 195 | 4.3 | 7.8 | 0.00 | 0.00 | 0.00 | 52 | 1012.0 |
| 20260507145232 | 56 | 281 | 2.6 | 4.3 | 0.00 | 0.00 | 0.00 | 51 | 1012.1 |
| 20260507144730 | 56 | 86 | 4.3 | 8.7 | 0.00 | 0.00 | 0.00 | 51 | 1012.3 |
| 20260507144227 | 55 | 155 | 0.0 | 6.1 | 0.00 | 0.00 | 0.00 | 53 | 1012.1 |
| 20260507143723 | 55 | 293 | 4.3 | 8.7 | 0.00 | 0.00 | 0.00 | 51 | 1012.2 |
| 20260507143221 | 56 | 55 | 3.5 | 5.2 | 0.00 | 0.00 | 0.00 | 50 | 1012.1 |
| 20260507142717 | 55 | 193 | 4.3 | 6.1 | 0.00 | 0.00 | 0.00 | 53 | 1012.1 |
| 20260507142213 | 55 | 209 | 2.6 | 8.7 | 0.00 | 0.00 | 0.00 | 57 | 1012.4 |
| 20260507141709 | 55 | 248 | 1.7 | 6.1 | 0.00 | 0.00 | 0.00 | 54 | 1012.2 |
| 20260507141207 | 56 | 121 | 0.9 | 5.2 | 0.00 | 0.00 | 0.00 | 58 | 1012.4 |
| 20260507140703 | 55 | 222 | 3.5 | 5.2 | 0.00 | 0.00 | 0.00 | 59 | 1012.4 |
| 20260507140201 | 55 | 219 | 0.9 | 2.6 | 0.00 | 0.00 | 0.00 | 63 | 1012.6 |
| 20260507135657 | 53 | 189 | 1.7 | 4.3 | 0.00 | 0.00 | 0.00 | 60 | 1012.8 |
| 20260507135155 | 54 | 234 | 4.3 | 6.1 | 0.00 | 0.00 | 0.00 | 65 | 1012.5 |
| 20260507134651 | 55 | 212 | 3.5 | 5.2 | 0.00 | 0.00 | 0.00 | 65 | 1012.9 |
| 20260507134147 | 54 | 122 | 0.0 | 0.9 | 0.00 | 0.00 | 0.00 | 67 | 1012.8 |
| 20260507133643 | 52 | 217 | 1.7 | 2.6 | 0.00 | 0.00 | 0.00 | 66 | 1012.9 |
| 20260507133141 | 54 | 161 | 2.6 | 2.6 | 0.00 | 0.00 | 0.00 | 64 | 1012.7 |
| 20260507132638 | 52 | 109 | 0.0 | 5.2 | 0.00 | 0.00 | 0.00 | 70 | 1012.9 |
| 20260507132134 | 52 | 91 | 0.9 | 1.7 | 0.00 | 0.00 | 0.00 | 74 | 1013.0 |
| 20260507131631 | 51 | 113 | 0.0 | 0.9 | 0.00 | 0.00 | 0.00 | 78 | 1013.1 |
| 20260507131129 | 51 | 126 | 0.9 | 1.7 | 0.00 | 0.00 | 0.00 | 80 | 1013.1 |
| 20260507130625 | 51 | 116 | 0.0 | 0.9 | 0.00 | 0.00 | 0.00 | 79 | 1012.9 |
| 20260507130123 | 50 | 82 | 0.9 | 1.7 | 0.00 | 0.00 | 0.00 | 80 | 1012.9 |
| 20260507125621 | 49 | 69 | 0.0 | 0.9 | 0.00 | 0.00 | 0.00 | 81 | 1013.0 |
| 20260507125119 | 48 | 48 | 0.9 | 0.9 | 0.00 | 0.00 | 0.00 | 84 | 1013.0 |
| 20260507124614 | 48 | 65 | 0.9 | 1.7 | 0.00 | 0.00 | 0.00 | 85 | 1013.0 |
| 20260507124113 | 47 | 100 | 0.9 | 0.9 | 0.00 | 0.00 | 0.00 | 86 | 1012.9 |
| 20260507123611 | 46 | 125 | 0.0 | 1.7 | 0.00 | 0.00 | 0.00 | 87 | 1012.8 |
| 20260507123107 | 45 | 103 | 0.0 | 0.9 | 0.00 | 0.00 | 0.00 | 90 | 1012.9 |
| 20260507122602 | 44 | 100 | 0.9 | 0.9 | 0.00 | 0.00 | 0.00 | 93 | 1013.0 |
| 20260507122058 | 44 | 114 | 0.0 | 1.7 | 0.00 | 0.00 | 0.00 | 95 | 1012.9 |
| 20260507121554 | 43 | 121 | 0.0 | 0.9 | 0.00 | 0.00 | 0.00 | 96 | 1013.0 |
| 20260507121051 | 42 | 84 | 0.0 | 0.0 | 0.00 | 0.00 | 0.00 | 96 | 1013.0 |
| 20260507120547 | 41 | 113 | 0.9 | 0.9 | 0.00 | 0.00 | 0.00 | 96 | 1013.1 |
| 20260507120044 | 40 | 92 | 1.7 | 2.6 | 0.00 | 0.00 | 0.00 | 96 | 1013.0 |
| 20260507115540 | 39 | 182 | 0.0 | 0.9 | 0.00 | 0.00 | 0.00 | 96 | 1013.1 |
| 20260507115036 | 39 | 120 | 0.0 | 0.9 | 0.00 | 0.00 | 0.00 | 96 | 1013.0 |
| 20260507114532 | 39 | 100 | 0.0 | 0.9 | 0.00 | 0.00 | 0.00 | 96 | 1012.9 |
| 20260507114029 | 39 | 116 | 0.0 | 0.0 | 0.00 | 0.00 | 0.00 | 96 | 1013.0 |
| 20260507113526 | 37 | 129 | 0.0 | 0.0 | 0.00 | 0.00 | 0.00 | 96 | 1012.9 |
| 20260507113024 | 36 | 162 | 0.0 | 0.0 | 0.00 | 0.00 | 0.00 | 95 | 1012.9 |
| 20260507112521 | 36 | 160 | 0.0 | 0.0 | 0.00 | 0.00 | 0.00 | 95 | 1013.0 |
| 20260507112017 | 35 | 117 | 0.0 | 0.0 | 0.00 | 0.00 | 0.00 | 95 | 1012.8 |
| 20260507111515 | 35 | 145 | 0.0 | 0.9 | 0.00 | 0.00 | 0.00 | 95 | 1012.9 |
| 20260507111011 | 35 | 177 | 0.0 | 0.9 | 0.00 | 0.00 | 0.00 | 95 | 1012.8 |
| 20260507110508 | 35 | 190 | 0.9 | 0.9 | 0.00 | 0.00 | 0.00 | 95 | 1012.8 |
| 20260507110005 | 35 | 207 | 0.9 | 0.9 | 0.00 | 0.00 | 0.00 | 95 | 1012.7 |